»·PEaware :: N99157 KEMT-KSAN

N99157 :: KEMT-KSAN

FLIGHT INFORMATION

Flight Status: Arrived
Operator: Privately registered:
United States
More flights under this callsign
Pilot: Michael H. (14396)
Aircraft: CESSNA 172 SKYHAWK
(C172)
More flights by this aircraft type
Origin: KEMT El Monte
United States
Destination: KSAN San Diego Intl-Lindbergh
United States
More flights between these airports :: More routes between these airports
Route: +PDZ V186 HAILE V66 MZB
File this flight plan on PilotEdge
Remarks: TEC route ONTN12
Altitude:
(Current/Filed)
9,000ft
Speed:
(Current/Filed)
105kts
Departed: 07-May-18 04:36 PM
Arrived: 07-May-18 05:47 PM
Distance/Time
Traveled:
91nm/1:10
Distance/Time
To Go:
Arrived

Flight Plot

Page will automatically refresh every two minutes.


Map Options




Map Legend


Flown Route
Filed Route
Departure Airport
Arrival Airport
Navaid (VOR, NDB)
Fix

Horizontal Profiles

Position Reports

Time Latitude Longitude Heading Altitude Ground
Speed
07-May-18 16:04 34.082285 -118.036040 204 299ft 0kts
07-May-18 16:08 34.082285 -118.036040 204 299ft 0kts
07-May-18 16:09 34.082285 -118.036040 204 299ft 0kts
07-May-18 16:10 34.082285 -118.036040 204 299ft 0kts
07-May-18 16:11 34.082285 -118.036040 204 299ft 0kts
07-May-18 16:12 34.082285 -118.036040 204 299ft 0kts
07-May-18 16:13 34.082285 -118.036040 204 299ft 0kts
07-May-18 16:14 34.082285 -118.036040 204 299ft 0kts
07-May-18 16:15 34.082285 -118.036040 204 299ft 0kts
07-May-18 16:16 34.082285 -118.036040 204 299ft 0kts
07-May-18 16:17 34.082285 -118.036040 204 299ft 0kts
07-May-18 16:18 34.082285 -118.036040 204 299ft 0kts
07-May-18 16:19 34.082285 -118.036040 204 299ft 0kts
07-May-18 16:20 34.082285 -118.036040 204 299ft 0kts
07-May-18 16:21 34.082285 -118.036040 204 299ft 0kts
07-May-18 16:22 34.082285 -118.036040 204 299ft 0kts
07-May-18 16:23 34.082285 -118.036040 204 299ft 0kts
07-May-18 16:24 34.082285 -118.036040 204 299ft 0kts
07-May-18 16:25 34.082285 -118.036040 204 299ft 0kts
07-May-18 16:26 34.082285 -118.036040 204 299ft 0kts
07-May-18 16:27 34.082264 -118.036077 292 299ft 0kts
07-May-18 16:27 34.082264 -118.036077 292 299ft 0kts
07-May-18 16:28 34.082264 -118.036077 292 299ft 0kts
07-May-18 16:29 34.083279 -118.035774 25 299ft 11kts
07-May-18 16:30 34.087298 -118.033475 24 299ft 19kts
07-May-18 16:31 34.090577 -118.031589 21 299ft 5kts
07-May-18 16:32 34.090733 -118.031627 311 299ft 0kts
07-May-18 16:33 34.090733 -118.031627 311 299ft 0kts
07-May-18 16:34 34.090734 -118.031628 311 299ft 0kts
07-May-18 16:36 34.085938 -118.035065 208 414ft 54kts
07-May-18 16:36 34.072601 -118.041742 191 873ft 71kts
07-May-18 16:37 34.053537 -118.050530 205 1511ft 74kts
07-May-18 16:38 34.050921 -118.028106 75 2068ft 90kts
07-May-18 16:39 34.057363 -117.999548 76 2692ft 87kts
07-May-18 16:40 34.062570 -117.969504 78 3199ft 95kts
07-May-18 16:41 34.061027 -117.939410 108 3695ft 95kts
07-May-18 16:42 34.053537 -117.910621 120 4220ft 90kts
07-May-18 16:43 34.045683 -117.881360 111 4699ft 91kts
07-May-18 16:44 34.037325 -117.853359 120 5235ft 82kts
07-May-18 16:45 34.027656 -117.828656 120 5731ft 82kts
07-May-18 16:47 34.018682 -117.805036 120 6162ft 83kts
07-May-18 16:48 34.009015 -117.779160 117 6565ft 88kts
07-May-18 16:49 33.999019 -117.751849 117 6972ft 91kts
07-May-18 16:50 33.986874 -117.718834 118 7004ft 121kts
07-May-18 16:51 33.974512 -117.684435 118 7471ft 94kts
07-May-18 16:52 33.964225 -117.655671 119 7860ft 93kts
07-May-18 16:53 33.953803 -117.626803 119 8234ft 94kts
07-May-18 16:54 33.943384 -117.597983 116 8587ft 94kts
07-May-18 16:55 33.932730 -117.568541 113 8911ft 96kts
07-May-18 16:56 33.920812 -117.535665 113 8977ft 117kts
07-May-18 16:57 33.895512 -117.511061 147 8976ft 125kts
07-May-18 16:58 33.867524 -117.487418 150 8975ft 127kts
07-May-18 16:59 33.838795 -117.463312 152 8976ft 124kts
07-May-18 17:00 33.811285 -117.440270 153 8977ft 118kts
07-May-18 17:01 33.784613 -117.417975 149 9001ft 116kts
07-May-18 17:02 33.756721 -117.394606 147 9004ft 129kts
07-May-18 17:03 33.726758 -117.369522 147 9003ft 133kts
07-May-18 17:04 33.697325 -117.344925 148 9001ft 133kts
07-May-18 17:05 33.667546 -117.320080 147 9000ft 133kts
07-May-18 17:06 33.637277 -117.294855 148 9001ft 133kts
07-May-18 17:07 33.606962 -117.269616 148 9001ft 132kts
07-May-18 17:08 33.577163 -117.244775 150 9002ft 126kts
07-May-18 17:09 33.549135 -117.221511 149 9001ft 122kts
07-May-18 17:10 33.520824 -117.197974 150 9002ft 124kts
07-May-18 17:11 33.493297 -117.175141 150 8982ft 117kts
07-May-18 17:12 33.465628 -117.159454 170 8976ft 109kts
07-May-18 17:13 33.436000 -117.152839 170 8975ft 108kts
07-May-18 17:14 33.406232 -117.146408 172 8975ft 110kts
07-May-18 17:15 33.375263 -117.139823 173 9003ft 117kts
07-May-18 17:16 33.342278 -117.132841 173 8999ft 123kts
07-May-18 17:17 33.308819 -117.125741 173 9001ft 123kts
07-May-18 17:18 33.275149 -117.118611 173 9002ft 123kts
07-May-18 17:19 33.242101 -117.111616 174 8998ft 123kts
07-May-18 17:20 33.208794 -117.104596 172 9001ft 119kts
07-May-18 17:21 33.176744 -117.097823 174 9001ft 119kts
07-May-18 17:22 33.144128 -117.090966 173 9002ft 124kts
07-May-18 17:23 33.109681 -117.082380 160 8858ft 136kts
07-May-18 17:24 33.074781 -117.059334 151 8368ft 147kts
07-May-18 17:25 33.039715 -117.034693 151 7872ft 147kts
07-May-18 17:26 33.007559 -117.012173 150 7418ft 146kts
07-May-18 17:27 32.972969 -116.988090 151 6984ft 141kts
07-May-18 17:28 32.940560 -116.967021 150 6977ft 128kts
07-May-18 17:29 32.909573 -116.947770 150 6976ft 124kts
07-May-18 17:30 32.879271 -116.928960 150 6972ft 124kts
07-May-18 17:31 32.848871 -116.910098 151 6947ft 126kts
07-May-18 17:32 32.815600 -116.889393 151 6475ft 138kts
07-May-18 17:33 32.778393 -116.893635 190 5967ft 135kts
07-May-18 17:34 32.746147 -116.908501 247 5457ft 127kts
07-May-18 17:35 32.733354 -116.947396 251 4956ft 126kts
07-May-18 17:36 32.720757 -116.986185 251 4456ft 126kts
07-May-18 17:37 32.711550 -117.025191 255 3910ft 116kts
07-May-18 17:38 32.704231 -117.061302 256 2943ft 121kts
07-May-18 17:39 32.710996 -117.094135 290 2530ft 99kts
07-May-18 17:40 32.719934 -117.129478 282 1739ft 124kts
07-May-18 17:41 32.728896 -117.170290 283 275ft 119kts
07-May-18 17:42 32.736376 -117.201059 282 329ft 101kts
07-May-18 17:43 32.753538 -117.213269 23 1097ft 100kts
07-May-18 17:44 32.750973 -117.178092 109 1187ft 116kts
07-May-18 17:45 32.736313 -117.157634 194 953ft 90kts
07-May-18 17:46 32.730577 -117.177088 279 143ft 74kts
07-May-18 17:47 32.734180 -117.190863 349 21ft 7kts
07-May-18 17:48 32.734845 -117.190213 102 21ft 13kts
07-May-18 17:49 32.734987 -117.188354 198 21ft 0kts

Navigation Log

Ident Type
1. KEMT Airport
2. PDZ Navaid
3. NIKKL Fix
4. WESIN Fix
5. TANNR Fix
6. DEGLE Fix
7. ROBNN Fix
8. HAILE Fix
9. MZB Navaid
10. KSAN Airport